Time;durP1;ratioP1;P1;durP2;ratioP2;P2;SDS_P1;SDS_P2;PMS_P1;PMS_P2;Temp;Humidity;BMP_temperature;BMP_pressure;BME280_temperature;BME280_humidity;BME280_pressure;Samples;Min_cycle;Max_cycle;Signal;HPM_P1;HPM_P2
2022/07/19 00:01:25;;;;;;;12.32;10.13;;;19.80;99.90;;;;;;4949758;28;20111;-87
2022/07/19 00:03:51;;;;;;;11.18;8.43;;;19.80;99.90;;;;;;4988795;28;20073;-85
2022/07/19 00:06:16;;;;;;;10.23;8.95;;;19.70;99.90;;;;;;4931884;28;20050;-85
2022/07/19 00:08:42;;;;;;;11.77;10.13;;;19.70;99.90;;;;;;4954690;28;20054;-86
2022/07/19 00:11:08;;;;;;;11.35;9.35;;;19.70;99.90;;;;;;4967159;28;20456;-86
2022/07/19 00:13:34;;;;;;;12.35;9.52;;;19.70;99.90;;;;;;4971796;28;20053;-86
2022/07/19 00:15:59;;;;;;;13.30;10.57;;;19.60;99.90;;;;;;4948024;28;20081;-85
2022/07/19 00:18:25;;;;;;;11.20;9.25;;;19.60;99.90;;;;;;4963779;28;20046;-84
2022/07/19 00:20:51;;;;;;;10.98;9.07;;;19.50;99.90;;;;;;4971599;28;20089;-86
2022/07/19 00:23:16;;;;;;;11.90;9.63;;;19.50;99.90;;;;;;4948561;28;20054;-85
2022/07/19 00:25:42;;;;;;;11.63;9.80;;;19.50;99.90;;;;;;4971441;28;20531;-85
2022/07/19 00:28:08;;;;;;;10.98;9.25;;;19.50;99.90;;;;;;4956642;28;20128;-85
2022/07/19 00:30:34;;;;;;;12.55;10.65;;;19.50;99.90;;;;;;4947691;28;20069;-85
2022/07/19 00:32:59;;;;;;;11.27;10.07;;;19.50;99.90;;;;;;4971840;28;20527;-85
2022/07/19 00:35:25;;;;;;;14.35;11.20;;;19.40;99.90;;;;;;4956573;28;20058;-85
2022/07/19 00:37:51;;;;;;;12.88;10.85;;;19.40;99.90;;;;;;4963175;28;20470;-85
2022/07/19 00:40:23;;;;;;;12.85;10.60;;;19.40;99.90;;;;;;4971992;28;20046;-85
2022/07/19 00:42:51;;;;;;;13.82;10.77;;;19.40;99.90;;;;;;4971299;28;20050;-85
2022/07/19 00:45:18;;;;;;;12.93;11.20;;;19.30;99.90;;;;;;4949225;28;20579;-86
2022/07/19 00:47:43;;;;;;;11.65;10.45;;;19.30;99.90;;;;;;4961843;28;20127;-85
2022/07/19 00:50:09;;;;;;;15.63;10.27;;;19.30;99.90;;;;;;4963404;28;20053;-85
2022/07/19 00:52:38;;;;;;;12.13;10.43;;;19.30;99.90;;;;;;4973099;28;20409;-85
2022/07/19 00:55:05;;;;;;;14.32;10.85;;;19.30;99.90;;;;;;4959319;28;20401;-84
2022/07/19 00:57:31;;;;;;;11.07;9.13;;;19.20;99.90;;;;;;4975548;28;20129;-85
2022/07/19 00:59:57;;;;;;;15.18;11.32;;;19.20;99.90;;;;;;4975537;28;20064;-85
2022/07/19 01:02:25;;;;;;;12.50;10.30;;;19.20;99.90;;;;;;4975541;28;20129;-85
2022/07/19 01:04:50;;;;;;;11.07;9.98;;;19.10;99.90;;;;;;4952380;28;20411;-86
2022/07/19 01:07:16;;;;;;;11.63;10.43;;;19.10;99.90;;;;;;4958855;28;20504;-85
2022/07/19 01:09:42;;;;;;;12.75;10.52;;;19.10;99.90;;;;;;4959536;28;20100;-82
2022/07/19 01:12:08;;;;;;;11.90;10.65;;;19.10;99.90;;;;;;4967144;28;20055;-85
2022/07/19 01:14:35;;;;;;;13.20;11.13;;;19.00;99.90;;;;;;4952658;28;20049;-86
2022/07/19 01:17:02;;;;;;;10.60;9.50;;;19.00;99.90;;;;;;4967608;28;20046;-86
2022/07/19 01:19:28;;;;;;;11.90;10.40;;;19.00;99.90;;;;;;4968780;28;20066;-85
2022/07/19 01:21:53;;;;;;;12.20;10.90;;;18.90;99.90;;;;;;4963819;28;20125;-86
2022/07/19 01:24:19;;;;;;;12.55;10.57;;;18.90;99.90;;;;;;4975432;28;20066;-85
2022/07/19 01:26:45;;;;;;;11.48;10.18;;;18.90;99.90;;;;;;4966494;28;20054;-86
2022/07/19 01:29:15;;;;;;;10.88;9.52;;;18.80;99.90;;;;;;4967997;28;20061;-86
2022/07/19 01:31:41;;;;;;;11.30;10.10;;;18.80;99.90;;;;;;4974954;28;20072;-84
2022/07/19 01:34:07;;;;;;;12.05;9.68;;;18.80;99.90;;;;;;4967240;28;20485;-85
2022/07/19 01:36:33;;;;;;;11.43;9.50;;;18.80;99.90;;;;;;4966685;28;20550;-84
2022/07/19 01:38:59;;;;;;;10.25;9.23;;;18.70;99.90;;;;;;4952175;28;20060;-85
2022/07/19 01:41:24;;;;;;;11.73;9.32;;;18.70;99.90;;;;;;4966426;28;20049;-86
2022/07/19 01:43:50;;;;;;;9.98;8.48;;;18.70;99.90;;;;;;4958225;28;20054;-85
2022/07/19 01:46:16;;;;;;;10.70;8.73;;;18.70;99.90;;;;;;4965589;28;20149;-86
2022/07/19 01:48:41;;;;;;;11.80;9.90;;;18.70;99.90;;;;;;4974921;28;20105;-86
2022/07/19 01:51:07;;;;;;;10.60;9.30;;;18.60;99.90;;;;;;4965574;28;20054;-86
2022/07/19 01:53:33;;;;;;;11.07;9.70;;;18.60;99.90;;;;;;4950547;28;20054;-86
2022/07/19 01:55:59;;;;;;;10.73;9.32;;;18.60;99.90;;;;;;4971738;28;20059;-85
2022/07/19 01:58:24;;;;;;;13.38;9.73;;;18.60;99.90;;;;;;4967435;28;20050;-85
2022/07/19 02:00:51;;;;;;;10.88;9.43;;;18.60;99.90;;;;;;4950993;28;20476;-85
2022/07/19 02:03:17;;;;;;;11.40;8.90;;;18.50;99.90;;;;;;4957927;28;20137;-86
2022/07/19 02:05:43;;;;;;;10.73;8.95;;;18.50;99.90;;;;;;4949519;28;20051;-85
2022/07/19 02:08:09;;;;;;;9.80;8.25;;;18.50;99.90;;;;;;4950138;28;20062;-85
2022/07/19 02:10:35;;;;;;;10.38;8.88;;;18.40;99.90;;;;;;4973774;28;20046;-86
2022/07/19 02:13:01;;;;;;;11.32;9.05;;;18.40;99.90;;;;;;4940968;28;20408;-85
2022/07/19 02:15:26;;;;;;;8.98;8.07;;;18.40;99.90;;;;;;4974109;28;20046;-86
2022/07/19 02:17:52;;;;;;;9.77;7.93;;;18.40;99.90;;;;;;4957775;28;20070;-85
2022/07/19 02:20:18;;;;;;;10.38;9.07;;;18.40;99.90;;;;;;4958688;28;20042;-85
2022/07/19 02:22:44;;;;;;;11.15;7.90;;;18.40;99.90;;;;;;4950110;28;20081;-86
2022/07/19 02:25:10;;;;;;;9.85;8.85;;;18.40;99.90;;;;;;4958447;28;20056;-86
2022/07/19 02:27:35;;;;;;;13.32;8.45;;;18.40;99.90;;;;;;4958260;28;20064;-86
2022/07/19 02:30:03;;;;;;;9.60;8.45;;;18.30;99.90;;;;;;4942472;28;20046;-86
2022/07/19 02:32:28;;;;;;;10.48;8.30;;;18.30;99.90;;;;;;4975423;28;20042;-86
2022/07/19 02:34:54;;;;;;;9.15;8.25;;;18.30;99.90;;;;;;4950561;28;20511;-85
2022/07/19 02:37:20;;;;;;;10.10;8.57;;;18.30;99.90;;;;;;4954165;28;20073;-85
2022/07/19 02:39:46;;;;;;;12.77;9.02;;;18.30;99.90;;;;;;4971247;28;20053;-85
2022/07/19 02:42:11;;;;;;;9.75;8.00;;;18.30;99.90;;;;;;4966223;28;20030;-83
2022/07/19 02:44:37;;;;;;;10.05;7.53;;;18.30;99.90;;;;;;4974473;28;20054;-84
2022/07/19 02:47:02;;;;;;;11.05;8.35;;;18.30;99.90;;;;;;4973673;28;20084;-85
2022/07/19 02:49:28;;;;;;;8.70;7.72;;;18.20;99.90;;;;;;4958294;28;20492;-86
2022/07/19 02:51:54;;;;;;;10.07;7.65;;;18.20;99.90;;;;;;4976063;28;20074;-84
2022/07/19 02:54:20;;;;;;;8.75;7.68;;;18.20;99.90;;;;;;4978059;28;20509;-84
2022/07/19 02:56:45;;;;;;;12.02;7.35;;;18.20;99.90;;;;;;4942313;28;20114;-85
2022/07/19 02:59:11;;;;;;;9.65;7.40;;;18.10;99.90;;;;;;4977550;28;20085;-85
2022/07/19 03:01:36;;;;;;;8.55;7.55;;;18.10;99.90;;;;;;4954377;28;20074;-85
2022/07/19 03:04:02;;;;;;;9.43;6.95;;;18.10;99.90;;;;;;4953872;28;20054;-84
2022/07/19 03:06:28;;;;;;;8.90;7.40;;;18.00;99.90;;;;;;4977058;28;20045;-85
2022/07/19 03:08:54;;;;;;;8.93;7.05;;;18.00;99.90;;;;;;4973727;28;20061;-85
2022/07/19 03:11:20;;;;;;;8.15;6.57;;;18.00;99.90;;;;;;4957113;28;20088;-85
2022/07/19 03:13:46;;;;;;;9.90;7.35;;;18.00;99.90;;;;;;4950583;28;20086;-85
2022/07/19 03:16:11;;;;;;;7.55;6.75;;;17.90;99.90;;;;;;4956931;28;20046;-86
2022/07/19 03:18:37;;;;;;;10.35;7.00;;;17.90;99.90;;;;;;4973300;28;20088;-85
2022/07/19 03:21:03;;;;;;;7.85;6.30;;;17.90;99.90;;;;;;4973409;28;20053;-85
2022/07/19 03:23:34;;;;;;;9.13;7.25;;;17.90;99.90;;;;;;4974212;28;20085;-85
2022/07/19 03:26:00;;;;;;;8.35;6.95;;;17.90;99.90;;;;;;4950402;28;20085;-84
2022/07/19 03:28:25;;;;;;;10.40;6.55;;;17.90;99.90;;;;;;4957947;28;20054;-84
2022/07/19 03:30:51;;;;;;;10.60;6.97;;;17.80;99.90;;;;;;4976767;28;20133;-85
2022/07/19 03:33:17;;;;;;;8.18;6.47;;;17.80;99.90;;;;;;4957645;28;20129;-85
2022/07/19 03:35:44;;;;;;;7.93;6.88;;;17.80;99.90;;;;;;4957022;28;20088;-85
2022/07/19 03:38:11;;;;;;;10.90;7.05;;;17.80;99.90;;;;;;4971410;28;20042;-85
2022/07/19 03:40:37;;;;;;;9.52;6.47;;;17.80;99.90;;;;;;4955787;28;20731;-85
2022/07/19 03:43:03;;;;;;;9.35;6.93;;;17.80;99.90;;;;;;4949713;28;20077;-85
2022/07/19 03:45:28;;;;;;;9.50;6.70;;;17.80;99.90;;;;;;4972382;28;20050;-86
2022/07/19 03:47:54;;;;;;;9.63;6.95;;;17.80;99.90;;;;;;4941560;28;20034;-86
2022/07/19 03:50:20;;;;;;;8.13;6.95;;;17.80;99.90;;;;;;4949695;28;20137;-84
2022/07/19 03:52:45;;;;;;;9.10;7.00;;;17.80;99.90;;;;;;4954510;28;20546;-85
2022/07/19 03:55:11;;;;;;;7.35;6.65;;;17.70;99.90;;;;;;4965402;28;20043;-84
2022/07/19 03:57:37;;;;;;;8.80;6.22;;;17.70;99.90;;;;;;4953908;28;20084;-83
2022/07/19 04:00:04;;;;;;;7.55;6.40;;;17.70;99.90;;;;;;4987226;28;20149;-83
2022/07/19 04:02:30;;;;;;;9.60;6.88;;;17.70;99.90;;;;;;4962761;28;20164;-83
2022/07/19 04:04:55;;;;;;;10.65;6.72;;;17.70;99.90;;;;;;4973407;28;20521;-85
2022/07/19 04:07:21;;;;;;;8.18;6.15;;;17.70;99.90;;;;;;4955623;28;20046;-84
2022/07/19 04:09:47;;;;;;;8.82;6.75;;;17.70;99.90;;;;;;4947769;28;20500;-84
2022/07/19 04:12:12;;;;;;;9.63;6.35;;;17.70;99.90;;;;;;4955491;28;20129;-84
2022/07/19 04:14:38;;;;;;;13.00;6.80;;;17.70;99.90;;;;;;4963924;28;20050;-85
2022/07/19 04:17:04;;;;;;;9.30;7.25;;;17.60;99.90;;;;;;4947581;28;20062;-84
2022/07/19 04:19:31;;;;;;;7.25;6.50;;;17.70;99.90;;;;;;4972951;28;20054;-84
2022/07/19 04:21:57;;;;;;;9.88;6.82;;;17.70;99.90;;;;;;4972785;28;20133;-83
2022/07/19 04:24:22;;;;;;;9.23;6.90;;;17.60;99.90;;;;;;4964257;28;20177;-85
2022/07/19 04:26:48;;;;;;;7.55;6.40;;;17.70;99.90;;;;;;4930472;28;20588;-85
2022/07/19 04:29:14;;;;;;;7.18;6.28;;;17.70;99.90;;;;;;4963284;28;20053;-84
2022/07/19 04:31:39;;;;;;;7.88;6.35;;;17.70;99.90;;;;;;4932912;28;20049;-85
2022/07/19 04:34:05;;;;;;;7.80;6.82;;;17.70;99.90;;;;;;4970801;28;20382;-83
2022/07/19 04:36:31;;;;;;;9.30;6.93;;;17.70;99.90;;;;;;4963936;28;20517;-84
2022/07/19 04:38:57;;;;;;;8.48;7.07;;;17.70;99.90;;;;;;4933509;28;20058;-94
2022/07/19 04:41:23;;;;;;;9.68;7.45;;;17.70;99.90;;;;;;4958482;28;20050;-91
2022/07/19 04:43:49;;;;;;;8.80;6.47;;;17.70;99.90;;;;;;4956695;28;20131;-95
2022/07/19 04:46:15;;;;;;;8.45;7.05;;;17.70;99.90;;;;;;4939344;28;20030;-88
2022/07/19 04:48:41;;;;;;;7.78;6.10;;;17.70;99.90;;;;;;4953221;28;20444;-91
2022/07/19 04:51:07;;;;;;;11.13;6.47;;;17.70;99.90;;;;;;4962032;28;20049;-91
2022/07/19 04:53:33;;;;;;;7.57;6.40;;;17.80;99.90;;;;;;4972600;28;20058;-90
2022/07/19 04:55:59;;;;;;;10.10;6.82;;;17.80;99.90;;;;;;4963253;28;20050;-93
2022/07/19 04:58:24;;;;;;;10.40;7.03;;;17.80;99.90;;;;;;4991510;28;20046;-91
2022/07/19 05:00:50;;;;;;;9.30;6.50;;;17.80;99.90;;;;;;4957884;28;21332;-91
2022/07/19 05:03:16;;;;;;;14.10;7.32;;;17.90;99.90;;;;;;4965985;28;20054;-92
2022/07/19 05:05:42;;;;;;;10.43;6.28;;;17.90;99.90;;;;;;4951413;28;20050;-91
2022/07/19 05:08:08;;;;;;;8.45;6.22;;;18.40;99.90;;;;;;4951116;28;20060;-92
2022/07/19 05:10:34;;;;;;;8.57;6.53;;;18.00;99.90;;;;;;4975302;28;20043;-93
2022/07/19 05:13:00;;;;;;;7.90;5.68;;;17.80;99.90;;;;;;4952693;28;20156;-89
2022/07/19 05:15:26;;;;;;;9.88;6.97;;;18.10;99.90;;;;;;4949620;28;20058;-89
2022/07/19 05:17:54;;;;;;;7.38;5.45;;;17.50;99.90;;;;;;4951257;28;20050;-89
2022/07/19 05:20:26;;;;;;;10.20;5.95;;;18.20;99.90;;;;;;4948830;28;20082;-93
2022/07/19 05:22:52;;;;;;;8.32;6.03;;;18.20;99.90;;;;;;4943701;28;20051;-92
2022/07/19 05:25:18;;;;;;;8.10;5.93;;;18.30;99.90;;;;;;4967469;28;20109;-91
2022/07/19 05:27:47;;;;;;;6.25;5.13;;;18.30;99.90;;;;;;4975730;28;20065;-92
2022/07/19 05:30:13;;;;;;;6.10;5.05;;;18.40;99.90;;;;;;4949424;28;20042;-90
2022/07/19 05:32:39;;;;;;;7.20;4.88;;;18.40;99.90;;;;;;4973840;28;20042;-93
2022/07/19 05:35:06;;;;;;;7.95;5.22;;;18.50;99.90;;;;;;4957553;28;20569;-92
2022/07/19 05:37:34;;;;;;;7.47;5.55;;;18.60;99.90;;;;;;4950012;28;20050;-90
2022/07/19 05:40:00;;;;;;;9.30;6.30;;;18.70;99.90;;;;;;4960855;28;20389;-91
2022/07/19 05:42:31;;;;;;;7.47;6.45;;;18.40;99.90;;;;;;4953313;28;20061;-91
2022/07/19 05:44:57;;;;;;;8.27;6.50;;;18.90;99.90;;;;;;4952865;28;20042;-91
2022/07/19 05:47:23;;;;;;;11.68;6.47;;;19.00;99.90;;;;;;4976301;28;20061;-91
2022/07/19 05:49:49;;;;;;;11.80;6.80;;;19.10;99.90;;;;;;4975939;28;20050;-92
2022/07/19 05:52:15;;;;;;;10.50;6.40;;;19.20;99.90;;;;;;4968063;28;20798;-91
2022/07/19 05:54:40;;;;;;;8.18;6.57;;;18.80;99.90;;;;;;4976307;28;20057;-92
2022/07/19 05:57:12;;;;;;;6.75;6.05;;;19.50;99.90;;;;;;4967932;28;20097;-86
2022/07/19 05:59:37;;;;;;;8.68;6.28;;;19.60;99.90;;;;;;4960042;28;20049;-86
2022/07/19 06:02:03;;;;;;;8.13;6.63;;;19.70;99.90;;;;;;4952428;28;20050;-86
2022/07/19 06:04:29;;;;;;;8.80;6.57;;;19.80;99.90;;;;;;4975559;28;20038;-85
2022/07/19 06:06:55;;;;;;;9.50;6.22;;;20.00;99.90;;;;;;4952333;28;20134;-86
2022/07/19 06:09:23;;;;;;;9.15;6.78;;;20.10;99.90;;;;;;4976023;28;20053;-87
2022/07/19 06:11:50;;;;;;;9.30;6.82;;;20.20;99.90;;;;;;4969426;28;20050;-88
2022/07/19 06:14:15;;;;;;;8.88;6.38;;;20.40;99.90;;;;;;4950521;28;20061;-86
2022/07/19 06:16:41;;;;;;;9.20;6.50;;;20.50;99.90;;;;;;4958807;28;20054;-87
2022/07/19 06:19:08;;;;;;;8.77;6.43;;;20.60;99.90;;;;;;4958047;28;20093;-85
2022/07/19 06:21:36;;;;;;;8.93;6.38;;;20.80;99.90;;;;;;4952373;28;20401;-85
2022/07/19 06:24:03;;;;;;;8.82;5.90;;;20.90;99.90;;;;;;4958664;28;20408;-85
2022/07/19 06:26:28;;;;;;;7.97;6.40;;;20.60;99.90;;;;;;4958054;28;20518;-85
2022/07/19 06:28:55;;;;;;;8.80;6.68;;;21.10;99.90;;;;;;4952218;28;20046;-85
2022/07/19 06:31:21;;;;;;;10.35;6.40;;;21.40;99.90;;;;;;4990424;28;20461;-84
2022/07/19 06:33:50;;;;;;;10.60;6.25;;;21.60;99.90;;;;;;4959335;28;20054;-84
2022/07/19 06:36:22;;;;;;;8.63;6.30;;;21.80;99.90;;;;;;4953655;28;20222;-84
2022/07/19 06:38:47;;;;;;;10.77;5.53;;;22.00;99.90;;;;;;4951577;28;20081;-85
2022/07/19 06:41:14;;;;;;;7.95;6.05;;;22.10;99.90;;;;;;4950979;28;20058;-85
2022/07/19 06:43:40;;;;;;;9.75;5.78;;;22.30;99.90;;;;;;4974692;28;20046;-84
2022/07/19 06:46:07;;;;;;;8.48;5.15;;;22.50;99.90;;;;;;4950589;28;20440;-85
2022/07/19 06:48:33;;;;;;;9.60;5.50;;;22.70;99.90;;;;;;4973979;28;20080;-85
2022/07/19 06:50:59;;;;;;;10.60;5.57;;;22.80;99.90;;;;;;4964850;28;20486;-84
2022/07/19 06:53:25;;;;;;;8.02;5.78;;;23.00;99.90;;;;;;4949096;28;20069;-86
2022/07/19 06:55:51;;;;;;;7.00;4.88;;;23.20;99.90;;;;;;4957796;28;20062;-85
2022/07/19 06:58:17;;;;;;;6.75;4.65;;;23.40;99.90;;;;;;4956634;28;20085;-84
2022/07/19 07:00:43;;;;;;;6.22;4.50;;;23.50;99.90;;;;;;4950553;28;20050;-86
2022/07/19 07:03:09;;;;;;;7.32;4.30;;;23.70;99.90;;;;;;4933437;28;20076;-84
2022/07/19 07:05:35;;;;;;;5.88;4.13;;;23.90;99.90;;;;;;4957341;28;20073;-84
2022/07/19 07:08:01;;;;;;;5.30;4.10;;;24.10;99.90;;;;;;4949035;28;20046;-82
2022/07/19 07:10:27;;;;;;;5.90;4.07;;;24.30;99.90;;;;;;4949991;28;20220;-84
2022/07/19 07:12:53;;;;;;;6.43;4.30;;;24.40;99.90;;;;;;4973263;28;20082;-86
2022/07/19 07:15:19;;;;;;;5.47;3.95;;;24.60;99.90;;;;;;4957073;28;20054;-85
2022/07/19 07:17:45;;;;;;;6.78;4.30;;;24.80;99.90;;;;;;4950527;28;20575;-86
2022/07/19 07:20:11;;;;;;;7.15;4.75;;;25.10;99.90;;;;;;4965129;28;20061;-86
2022/07/19 07:22:37;;;;;;;5.78;3.95;;;25.10;99.90;;;;;;4957624;28;20129;-86
2022/07/19 07:25:04;;;;;;;6.50;4.32;;;25.30;99.90;;;;;;4948526;28;20552;-86
2022/07/19 07:27:30;;;;;;;5.13;4.10;;;25.40;99.90;;;;;;4957516;28;20084;-86
2022/07/19 07:29:56;;;;;;;5.35;4.07;;;25.50;99.90;;;;;;4949585;28;20102;-86
2022/07/19 07:32:22;;;;;;;4.68;3.80;;;25.70;99.90;;;;;;4955663;28;20513;-86
2022/07/19 07:34:47;;;;;;;5.93;4.47;;;25.80;99.90;;;;;;4957259;28;20050;-83
2022/07/19 07:37:13;;;;;;;4.70;3.90;;;26.00;99.90;;;;;;4949773;28;20130;-85
2022/07/19 07:39:39;;;;;;;4.20;3.50;;;26.20;99.90;;;;;;4949035;28;20093;-85
2022/07/19 07:42:05;;;;;;;4.32;3.55;;;26.30;99.90;;;;;;4972120;28;20054;-85
2022/07/19 07:44:31;;;;;;;4.40;3.25;;;26.60;99.90;;;;;;4949921;28;20058;-85
2022/07/19 07:46:59;;;;;;;6.45;3.65;;;26.30;99.90;;;;;;4956488;28;20048;-84
2022/07/19 07:49:26;;;;;;;5.63;3.42;;;27.10;99.90;;;;;;4948734;28;20065;-85
2022/07/19 07:51:52;;;;;;;6.97;3.50;;;27.10;99.90;;;;;;4949763;28;20167;-85
2022/07/19 07:54:17;;;;;;;6.00;3.10;;;27.30;99.90;;;;;;4948652;28;20101;-85
2022/07/19 07:56:43;;;;;;;4.50;3.00;;;27.50;99.90;;;;;;4971904;28;20185;-84
2022/07/19 07:59:09;;;;;;;4.70;2.53;;;27.70;99.90;;;;;;4946882;28;20090;-86
2022/07/19 08:01:37;;;;;;;3.33;2.25;;;27.90;99.90;;;;;;4947711;28;20066;-87
2022/07/19 08:04:03;;;;;;;4.10;2.13;;;28.00;99.90;;;;;;4948434;28;20117;-84
2022/07/19 08:06:29;;;;;;;4.63;2.08;;;28.20;99.90;;;;;;4931979;28;20046;-86
2022/07/19 08:08:55;;;;;;;4.20;2.03;;;28.40;99.90;;;;;;4949223;28;20053;-85
2022/07/19 08:11:21;;;;;;;4.55;2.03;;;28.30;99.90;;;;;;4947089;28;20050;-86
2022/07/19 08:13:47;;;;;;;5.18;2.25;;;28.80;99.90;;;;;;4960001;28;20077;-85
2022/07/19 08:16:13;;;;;;;4.18;1.70;;;28.90;99.70;;;;;;4985773;28;20030;-89
2022/07/19 08:18:39;;;;;;;3.33;1.77;;;29.00;99.40;;;;;;4950776;28;20057;-87
2022/07/19 08:21:07;;;;;;;4.07;1.92;;;29.20;99.00;;;;;;4963948;28;20125;-88
2022/07/19 08:23:33;;;;;;;3.55;1.67;;;29.40;98.80;;;;;;4956828;28;20051;-87
2022/07/19 08:25:59;;;;;;;5.65;2.05;;;29.60;98.60;;;;;;4950792;28;20061;-88
2022/07/19 08:28:28;;;;;;;3.38;1.77;;;29.80;98.10;;;;;;4972907;28;20401;-89
2022/07/19 08:30:53;;;;;;;4.93;2.03;;;29.70;97.70;;;;;;4954155;28;20050;-85
2022/07/19 08:33:19;;;;;;;3.90;1.83;;;30.20;96.90;;;;;;4944690;28;20058;-85
2022/07/19 08:35:45;;;;;;;2.70;1.67;;;30.40;96.10;;;;;;4951821;28;20042;-86
2022/07/19 08:38:11;;;;;;;3.70;1.42;;;30.50;95.40;;;;;;4945818;28;20050;-93
2022/07/19 08:40:40;;;;;;;2.85;1.60;;;30.60;94.60;;;;;;4957266;28;20065;-89
2022/07/19 08:43:07;;;;;;;3.63;1.73;;;30.80;94.10;;;;;;4957569;28;20050;-91
2022/07/19 08:45:36;;;;;;;2.25;1.30;;;30.80;93.30;;;;;;4973093;28;20046;-91
2022/07/19 08:48:06;;;;;;;3.50;1.38;;;30.90;92.60;;;;;;4957967;28;20050;-91
2022/07/19 08:50:33;;;;;;;2.70;1.45;;;31.00;92.20;;;;;;4976444;28;20050;-91
2022/07/19 08:52:59;;;;;;;2.30;1.50;;;31.10;91.80;;;;;;4959657;28;20193;-89
2022/07/19 08:55:26;;;;;;;3.67;1.50;;;31.20;90.70;;;;;;4976351;28;20050;-89
2022/07/19 08:57:57;;;;;;;2.92;1.20;;;31.30;90.30;;;;;;4962472;28;20047;-91
2022/07/19 09:00:31;;;;;;;2.20;1.30;;;31.40;88.20;;;;;;4977826;28;20054;-88
2022/07/19 09:03:06;;;;;;;2.95;1.27;;;31.60;86.50;;;;;;4977242;28;20093;-89
2022/07/19 09:05:33;;;;;;;3.70;1.30;;;31.70;85.20;;;;;;4957619;28;20607;-90
2022/07/19 09:08:15;;;;;;;4.97;1.45;;;31.80;84.90;;;;;;4952792;28;20101;-90
2022/07/19 09:13:32;;;;;;;3.13;1.55;;;32.40;79.90;;;;;;4989117;28;20425;-89
2022/07/19 09:15:58;;;;;;;2.13;1.20;;;32.60;78.80;;;;;;4992993;28;20053;-88
2022/07/19 09:18:30;;;;;;;3.45;1.55;;;32.70;76.50;;;;;;4952547;28;20065;-89
2022/07/19 09:21:06;;;;;;;4.63;1.60;;;32.70;73.70;;;;;;4992081;28;20046;-88
2022/07/19 09:23:32;;;;;;;2.50;1.40;;;32.90;72.20;;;;;;4988308;28;20042;-91
2022/07/19 09:26:00;;;;;;;3.83;1.20;;;33.00;71.40;;;;;;4957719;28;20080;-89
2022/07/19 09:28:29;;;;;;;3.78;1.40;;;33.10;70.10;;;;;;4986573;28;20102;-88
2022/07/19 09:30:57;;;;;;;2.97;1.23;;;33.30;70.50;;;;;;4982053;28;20065;-88
2022/07/19 09:33:25;;;;;;;3.10;1.45;;;33.50;70.00;;;;;;4962111;28;20058;-89
2022/07/19 09:35:54;;;;;;;3.40;1.10;;;33.50;68.40;;;;;;4962697;28;20057;-88
2022/07/19 09:38:31;;;;;;;2.67;0.95;;;33.70;67.20;;;;;;4990790;28;20125;-91
2022/07/19 09:41:06;;;;;;;1.70;1.20;;;34.00;66.80;;;;;;4963224;28;20092;-91
2022/07/19 09:43:48;;;;;;;5.10;1.38;;;34.30;64.70;;;;;;4961790;28;20054;-92
2022/07/19 09:46:47;;;;;;;2.53;1.10;;;34.40;62.50;;;;;;4960664;28;20081;-91
2022/07/19 09:49:16;;;;;;;3.33;1.33;;;34.70;62.70;;;;;;4944106;28;20085;-93
2022/07/19 09:51:47;;;;;;;4.20;1.30;;;34.70;63.20;;;;;;4962588;28;20481;-91
2022/07/19 09:54:15;;;;;;;3.30;1.13;;;34.90;62.40;;;;;;4954443;28;20062;-91
2022/07/19 09:56:44;;;;;;;3.90;1.20;;;35.10;63.60;;;;;;4967444;28;20060;-92
2022/07/19 09:59:10;;;;;;;3.58;1.27;;;35.30;62.50;;;;;;4996703;28;20046;-86
2022/07/19 10:01:37;;;;;;;4.03;1.20;;;35.40;61.10;;;;;;4974714;28;20042;-87
2022/07/19 10:04:12;;;;;;;2.50;1.40;;;35.50;60.50;;;;;;4974910;28;20046;-87
2022/07/19 10:06:40;;;;;;;5.25;1.60;;;35.50;59.50;;;;;;4980583;28;20121;-87
2022/07/19 10:09:08;;;;;;;3.13;1.30;;;35.50;59.70;;;;;;4993523;28;20058;-87
2022/07/19 10:11:34;;;;;;;2.28;1.25;;;35.60;59.50;;;;;;4977447;28;20046;-88
2022/07/19 10:14:01;;;;;;;2.95;1.20;;;35.70;58.90;;;;;;4942691;28;20057;-88
2022/07/19 10:16:54;;;;;;;3.55;1.40;;;35.80;58.10;;;;;;4975714;28;20141;-86
2022/07/19 10:19:43;;;;;;;3.13;1.42;;;35.90;58.00;;;;;;4974606;28;20056;-89
2022/07/19 10:22:14;;;;;;;2.25;1.40;;;36.10;56.50;;;;;;4975111;28;20084;-85
2022/07/19 10:24:55;;;;;;;4.30;1.42;;;36.10;56.50;;;;;;4948353;28;20126;-84
2022/07/19 10:27:24;;;;;;;3.58;1.30;;;36.30;55.90;;;;;;4978676;28;20058;-90
2022/07/19 10:29:50;;;;;;;4.15;1.45;;;36.40;56.20;;;;;;4957478;28;20066;-85
2022/07/19 10:32:16;;;;;;;4.20;1.70;;;36.50;56.20;;;;;;4960238;28;20050;-87
2022/07/19 10:34:46;;;;;;;2.72;1.30;;;36.70;56.20;;;;;;4951195;28;20056;-85
2022/07/19 10:37:15;;;;;;;2.45;1.40;;;36.90;56.10;;;;;;4956470;28;20054;-85
2022/07/19 10:39:57;;;;;;;3.42;1.48;;;37.00;56.40;;;;;;4951559;28;20117;-88
2022/07/19 10:42:23;;;;;;;3.05;1.48;;;36.90;57.10;;;;;;4951177;28;20125;-86
2022/07/19 10:44:59;;;;;;;3.00;1.27;;;37.10;56.70;;;;;;4952692;28;20062;-85
2022/07/19 10:47:37;;;;;;;4.45;1.60;;;37.20;55.70;;;;;;4951098;28;20043;-85
2022/07/19 10:50:18;;;;;;;2.95;1.17;;;37.30;55.40;;;;;;4959129;28;20401;-86
2022/07/19 10:52:45;;;;;;;2.13;1.30;;;37.50;55.90;;;;;;4951064;28;20388;-86
2022/07/19 10:57:51;;;;;;;2.58;1.30;;;37.90;55.40;;;;;;4976305;28;20047;-87
2022/07/19 11:00:18;;;;;;;3.00;1.25;;;37.70;53.60;;;;;;4975997;28;20632;-85
2022/07/19 11:02:49;;;;;;;2.05;1.35;;;37.80;54.00;;;;;;4958572;28;20054;-86
2022/07/19 11:05:28;;;;;;;2.00;1.08;;;37.90;53.70;;;;;;4959561;28;20065;-86
2022/07/19 11:07:57;;;;;;;1.95;1.25;;;38.10;52.00;;;;;;4959455;28;20061;-88
2022/07/19 11:10:27;;;;;;;3.22;1.20;;;38.30;53.90;;;;;;4957294;28;20125;-83
2022/07/19 11:12:55;;;;;;;3.90;1.60;;;38.20;53.60;;;;;;4973940;28;20079;-85
2022/07/19 11:15:22;;;;;;;3.75;1.30;;;38.30;53.30;;;;;;4957898;28;20077;-82
2022/07/19 11:17:56;;;;;;;2.60;1.48;;;38.40;53.00;;;;;;4947739;28;20049;-86
2022/07/19 11:20:24;;;;;;;4.22;1.27;;;38.30;52.30;;;;;;4965365;28;20082;-82
2022/07/19 11:22:50;;;;;;;2.17;1.23;;;38.40;52.30;;;;;;4956606;28;20375;-82
2022/07/19 11:25:22;;;;;;;5.18;1.60;;;38.20;51.80;;;;;;4956562;28;20050;-83
2022/07/19 11:27:48;;;;;;;3.78;1.30;;;38.30;52.20;;;;;;4955682;28;20077;-83
2022/07/19 11:30:15;;;;;;;2.38;1.40;;;38.50;52.40;;;;;;4944781;28;20092;-83
2022/07/19 11:32:42;;;;;;;2.40;1.27;;;38.50;52.10;;;;;;4971463;28;20039;-81
2022/07/19 11:35:09;;;;;;;2.03;1.05;;;38.50;51.80;;;;;;4949038;28;20157;-82
2022/07/19 11:37:40;;;;;;;2.33;1.10;;;38.50;51.80;;;;;;4971360;28;20042;-83
2022/07/19 11:40:08;;;;;;;2.88;1.30;;;38.50;51.60;;;;;;4974221;28;20133;-83
2022/07/19 11:42:41;;;;;;;2.65;1.33;;;38.50;51.90;;;;;;4946662;28;20066;-81
2022/07/19 11:45:12;;;;;;;3.30;1.35;;;38.70;51.90;;;;;;4971362;28;20140;-83
2022/07/19 11:47:44;;;;;;;2.33;1.35;;;38.70;50.60;;;;;;4949508;28;20050;-83
2022/07/19 11:50:13;;;;;;;2.80;1.33;;;38.70;50.90;;;;;;4949296;28;20077;-82
2022/07/19 11:52:47;;;;;;;3.30;1.20;;;39.00;51.30;;;;;;4954429;28;20057;-83
2022/07/19 11:55:15;;;;;;;4.30;1.40;;;39.20;51.30;;;;;;4969806;28;20046;-82
2022/07/19 11:57:41;;;;;;;3.38;1.30;;;39.20;50.60;;;;;;4969552;28;20065;-83
2022/07/19 12:00:09;;;;;;;2.13;1.10;;;39.40;50.50;;;;;;4956962;28;20050;-84
2022/07/19 12:02:54;;;;;;;2.92;1.10;;;39.60;49.90;;;;;;4954623;28;20108;-84
2022/07/19 12:05:19;;;;;;;;;;;39.80;49.10;;;;;;4972380;28;20054;-84
2022/07/19 12:07:50;;;;;;;3.45;1.30;;;39.70;50.30;;;;;;4953423;28;19930;-83
2022/07/19 12:10:43;;;;;;;2.30;1.38;;;39.60;50.40;;;;;;4972474;28;20050;-83
2022/07/19 12:13:11;;;;;;;3.42;1.30;;;39.70;50.10;;;;;;4971738;28;20046;-83
2022/07/19 12:16:04;;;;;;;4.53;1.60;;;39.70;50.40;;;;;;4954954;28;20058;-84
2022/07/19 12:18:54;;;;;;;2.50;1.17;;;39.60;48.70;;;;;;4970575;28;20065;-84
2022/07/19 12:21:34;;;;;;;1.77;1.10;;;39.50;49.10;;;;;;4963851;28;20054;-84
2022/07/19 12:24:15;;;;;;;2.50;1.25;;;39.30;49.50;;;;;;4955546;28;20220;-84
2022/07/19 12:26:43;;;;;;;2.35;1.20;;;39.30;50.10;;;;;;4971341;28;20492;-84
2022/07/19 12:29:23;;;;;;;2.15;1.33;;;39.40;50.00;;;;;;4971460;28;20058;-83
2022/07/19 12:31:50;;;;;;;3.15;1.13;;;39.50;48.80;;;;;;4970222;28;20042;-85
2022/07/19 12:34:17;;;;;;;3.67;1.30;;;39.60;49.90;;;;;;4947576;28;20050;-84
2022/07/19 12:36:43;;;;;;;4.28;1.30;;;39.60;49.40;;;;;;4971512;28;20104;-82
2022/07/19 12:39:26;;;;;;;2.15;1.10;;;39.70;49.70;;;;;;4963699;28;20405;-83
2022/07/19 12:41:58;;;;;;;3.38;1.50;;;39.60;49.00;;;;;;4955155;28;20109;-83
2022/07/19 12:44:24;;;;;;;2.45;1.25;;;39.60;49.10;;;;;;4971139;28;20405;-84
2022/07/19 12:46:50;;;;;;;4.28;1.20;;;39.60;49.10;;;;;;4969582;28;20050;-83
2022/07/19 12:49:15;;;;;;;2.13;1.20;;;39.70;48.60;;;;;;4969736;28;20077;-82
2022/07/19 12:51:43;;;;;;;3.03;1.52;;;39.70;48.80;;;;;;4930144;28;20057;-83